sensor_id;sensor_type;location;lat;lon;timestamp;P1;durP1;ratioP1;P2;durP2;ratioP2
33357;SDS011;19717;42.614;23.418;2023-08-21T00:00:07;1.60;;;0.80;;
33357;SDS011;19717;42.614;23.418;2023-08-21T00:02:33;0.68;;;0.68;;
33357;SDS011;19717;42.614;23.418;2023-08-21T00:04:59;0.88;;;0.88;;
33357;SDS011;19717;42.614;23.418;2023-08-21T00:07:25;0.80;;;0.80;;
33357;SDS011;19717;42.614;23.418;2023-08-21T00:09:51;0.60;;;0.60;;
33357;SDS011;19717;42.614;23.418;2023-08-21T00:12:17;1.27;;;0.85;;
33357;SDS011;19717;42.614;23.418;2023-08-21T00:14:43;1.02;;;0.93;;
33357;SDS011;19717;42.614;23.418;2023-08-21T00:17:09;0.77;;;0.77;;
33357;SDS011;19717;42.614;23.418;2023-08-21T00:19:35;1.02;;;0.82;;
33357;SDS011;19717;42.614;23.418;2023-08-21T00:22:01;0.80;;;0.80;;
33357;SDS011;19717;42.614;23.418;2023-08-21T00:24:27;0.90;;;0.80;;
33357;SDS011;19717;42.614;23.418;2023-08-21T00:26:53;0.73;;;0.73;;
33357;SDS011;19717;42.614;23.418;2023-08-21T00:29:19;1.83;;;1.05;;
33357;SDS011;19717;42.614;23.418;2023-08-21T00:31:45;3.40;;;1.10;;
33357;SDS011;19717;42.614;23.418;2023-08-21T00:34:11;0.90;;;0.90;;
33357;SDS011;19717;42.614;23.418;2023-08-21T00:36:37;0.88;;;0.88;;
33357;SDS011;19717;42.614;23.418;2023-08-21T00:39:03;0.90;;;0.90;;
33357;SDS011;19717;42.614;23.418;2023-08-21T00:41:29;0.90;;;0.90;;
33357;SDS011;19717;42.614;23.418;2023-08-21T00:43:56;0.70;;;0.70;;
33357;SDS011;19717;42.614;23.418;2023-08-21T00:46:22;0.80;;;0.80;;
33357;SDS011;19717;42.614;23.418;2023-08-21T00:48:48;0.80;;;0.80;;
33357;SDS011;19717;42.614;23.418;2023-08-21T00:51:14;0.80;;;0.80;;
33357;SDS011;19717;42.614;23.418;2023-08-21T00:53:41;0.98;;;0.98;;
33357;SDS011;19717;42.614;23.418;2023-08-21T00:56:07;0.90;;;0.90;;
33357;SDS011;19717;42.614;23.418;2023-08-21T00:58:34;0.85;;;0.85;;
33357;SDS011;19717;42.614;23.418;2023-08-21T01:01:00;0.90;;;0.90;;
33357;SDS011;19717;42.614;23.418;2023-08-21T01:03:27;0.77;;;0.77;;
33357;SDS011;19717;42.614;23.418;2023-08-21T01:05:54;0.90;;;0.90;;
33357;SDS011;19717;42.614;23.418;2023-08-21T01:14:03;1.70;;;0.93;;
33357;SDS011;19717;42.614;23.418;2023-08-21T01:16:08;0.90;;;0.90;;
33357;SDS011;19717;42.614;23.418;2023-08-21T01:18:35;1.00;;;1.00;;
33357;SDS011;19717;42.614;23.418;2023-08-21T01:21:02;0.70;;;0.70;;
33357;SDS011;19717;42.614;23.418;2023-08-21T01:23:30;0.80;;;0.80;;
33357;SDS011;19717;42.614;23.418;2023-08-21T01:25:56;1.02;;;1.00;;
33357;SDS011;19717;42.614;23.418;2023-08-21T01:28:22;0.80;;;0.80;;
33357;SDS011;19717;42.614;23.418;2023-08-21T01:30:48;1.08;;;1.08;;
33357;SDS011;19717;42.614;23.418;2023-08-21T01:33:16;1.00;;;1.00;;
33357;SDS011;19717;42.614;23.418;2023-08-21T01:35:43;1.15;;;0.90;;
33357;SDS011;19717;42.614;23.418;2023-08-21T01:38:09;0.90;;;0.90;;
33357;SDS011;19717;42.614;23.418;2023-08-21T01:40:36;0.93;;;0.93;;
33357;SDS011;19717;42.614;23.418;2023-08-21T01:43:02;1.02;;;0.93;;
33357;SDS011;19717;42.614;23.418;2023-08-21T01:45:27;1.20;;;1.10;;
33357;SDS011;19717;42.614;23.418;2023-08-21T01:47:54;0.90;;;0.90;;
33357;SDS011;19717;42.614;23.418;2023-08-21T01:50:20;1.00;;;1.00;;
33357;SDS011;19717;42.614;23.418;2023-08-21T01:52:46;1.27;;;0.90;;
33357;SDS011;19717;42.614;23.418;2023-08-21T01:55:12;1.02;;;1.00;;
33357;SDS011;19717;42.614;23.418;2023-08-21T01:57:38;0.82;;;0.82;;
33357;SDS011;19717;42.614;23.418;2023-08-21T02:00:04;0.98;;;0.98;;
33357;SDS011;19717;42.614;23.418;2023-08-21T02:02:30;0.80;;;0.80;;
33357;SDS011;19717;42.614;23.418;2023-08-21T02:04:56;3.45;;;1.10;;
33357;SDS011;19717;42.614;23.418;2023-08-21T02:07:22;1.02;;;1.02;;
33357;SDS011;19717;42.614;23.418;2023-08-21T02:09:48;1.00;;;1.00;;
33357;SDS011;19717;42.614;23.418;2023-08-21T02:12:14;0.80;;;0.80;;
33357;SDS011;19717;42.614;23.418;2023-08-21T02:14:40;0.85;;;0.85;;
33357;SDS011;19717;42.614;23.418;2023-08-21T02:17:06;1.00;;;1.00;;
33357;SDS011;19717;42.614;23.418;2023-08-21T02:19:32;0.80;;;0.80;;
33357;SDS011;19717;42.614;23.418;2023-08-21T02:21:58;1.00;;;1.00;;
33357;SDS011;19717;42.614;23.418;2023-08-21T02:24:24;1.02;;;1.00;;
33357;SDS011;19717;42.614;23.418;2023-08-21T02:26:50;1.13;;;1.02;;
33357;SDS011;19717;42.614;23.418;2023-08-21T02:29:16;0.93;;;0.93;;
33357;SDS011;19717;42.614;23.418;2023-08-21T02:31:42;0.90;;;0.90;;
33357;SDS011;19717;42.614;23.418;2023-08-21T02:34:08;0.90;;;0.90;;
33357;SDS011;19717;42.614;23.418;2023-08-21T02:36:34;1.00;;;1.00;;
33357;SDS011;19717;42.614;23.418;2023-08-21T02:39:00;1.02;;;1.02;;
33357;SDS011;19717;42.614;23.418;2023-08-21T02:41:27;1.02;;;1.02;;
33357;SDS011;19717;42.614;23.418;2023-08-21T02:43:53;0.90;;;0.90;;
33357;SDS011;19717;42.614;23.418;2023-08-21T02:46:19;1.23;;;1.20;;
33357;SDS011;19717;42.614;23.418;2023-08-21T02:48:45;2.17;;;1.23;;
33357;SDS011;19717;42.614;23.418;2023-08-21T02:51:11;1.08;;;1.08;;
33357;SDS011;19717;42.614;23.418;2023-08-21T02:53:37;1.17;;;1.08;;
33357;SDS011;19717;42.614;23.418;2023-08-21T02:56:03;4.05;;;1.35;;
33357;SDS011;19717;42.614;23.418;2023-08-21T02:58:29;0.90;;;0.90;;
33357;SDS011;19717;42.614;23.418;2023-08-21T03:00:55;1.67;;;1.15;;
33357;SDS011;19717;42.614;23.418;2023-08-21T03:03:21;1.30;;;1.20;;
33357;SDS011;19717;42.614;23.418;2023-08-21T03:05:47;1.15;;;1.15;;
33357;SDS011;19717;42.614;23.418;2023-08-21T03:08:13;1.10;;;1.10;;
33357;SDS011;19717;42.614;23.418;2023-08-21T03:10:39;3.60;;;1.20;;
33357;SDS011;19717;42.614;23.418;2023-08-21T03:13:05;1.10;;;1.10;;
33357;SDS011;19717;42.614;23.418;2023-08-21T03:15:31;1.10;;;1.10;;
33357;SDS011;19717;42.614;23.418;2023-08-21T03:17:57;1.23;;;1.13;;
33357;SDS011;19717;42.614;23.418;2023-08-21T03:20:24;1.30;;;1.20;;
33357;SDS011;19717;42.614;23.418;2023-08-21T03:22:50;1.27;;;1.17;;
33357;SDS011;19717;42.614;23.418;2023-08-21T03:25:16;1.20;;;1.10;;
33357;SDS011;19717;42.614;23.418;2023-08-21T03:27:42;1.13;;;1.13;;
33357;SDS011;19717;42.614;23.418;2023-08-21T03:30:09;1.17;;;1.15;;
33357;SDS011;19717;42.614;23.418;2023-08-21T03:32:35;1.90;;;1.00;;
33357;SDS011;19717;42.614;23.418;2023-08-21T03:35:01;1.10;;;1.10;;
33357;SDS011;19717;42.614;23.418;2023-08-21T03:37:27;1.20;;;1.10;;
33357;SDS011;19717;42.614;23.418;2023-08-21T03:39:53;1.10;;;1.10;;
33357;SDS011;19717;42.614;23.418;2023-08-21T03:42:19;2.92;;;1.30;;
33357;SDS011;19717;42.614;23.418;2023-08-21T03:44:45;1.00;;;1.00;;
33357;SDS011;19717;42.614;23.418;2023-08-21T03:47:14;1.40;;;1.20;;
33357;SDS011;19717;42.614;23.418;2023-08-21T03:49:40;1.42;;;1.13;;
33357;SDS011;19717;42.614;23.418;2023-08-21T03:52:06;1.10;;;1.10;;
33357;SDS011;19717;42.614;23.418;2023-08-21T03:54:33;1.20;;;1.20;;
33357;SDS011;19717;42.614;23.418;2023-08-21T03:56:59;1.73;;;1.20;;
33357;SDS011;19717;42.614;23.418;2023-08-21T03:59:25;1.27;;;1.27;;
33357;SDS011;19717;42.614;23.418;2023-08-21T04:01:52;1.88;;;1.27;;
33357;SDS011;19717;42.614;23.418;2023-08-21T04:04:18;1.10;;;1.10;;
33357;SDS011;19717;42.614;23.418;2023-08-21T04:06:44;1.00;;;1.00;;
33357;SDS011;19717;42.614;23.418;2023-08-21T04:09:10;1.30;;;1.20;;
33357;SDS011;19717;42.614;23.418;2023-08-21T04:11:36;1.00;;;1.00;;
33357;SDS011;19717;42.614;23.418;2023-08-21T04:14:03;1.00;;;1.00;;
33357;SDS011;19717;42.614;23.418;2023-08-21T04:16:29;1.00;;;1.00;;
33357;SDS011;19717;42.614;23.418;2023-08-21T04:18:56;1.10;;;1.10;;
33357;SDS011;19717;42.614;23.418;2023-08-21T04:21:22;2.75;;;1.10;;
33357;SDS011;19717;42.614;23.418;2023-08-21T04:23:48;1.10;;;1.10;;
33357;SDS011;19717;42.614;23.418;2023-08-21T04:26:14;1.85;;;1.20;;
33357;SDS011;19717;42.614;23.418;2023-08-21T04:28:40;1.23;;;1.13;;
33357;SDS011;19717;42.614;23.418;2023-08-21T04:31:07;1.40;;;1.30;;
33357;SDS011;19717;42.614;23.418;2023-08-21T04:33:33;1.05;;;1.05;;
33357;SDS011;19717;42.614;23.418;2023-08-21T04:36:00;1.13;;;1.13;;
33357;SDS011;19717;42.614;23.418;2023-08-21T04:38:26;1.00;;;1.00;;
33357;SDS011;19717;42.614;23.418;2023-08-21T04:40:52;1.20;;;1.20;;
33357;SDS011;19717;42.614;23.418;2023-08-21T04:43:18;1.30;;;1.20;;
33357;SDS011;19717;42.614;23.418;2023-08-21T04:45:48;2.25;;;1.10;;
33357;SDS011;19717;42.614;23.418;2023-08-21T04:48:15;1.40;;;1.30;;
33357;SDS011;19717;42.614;23.418;2023-08-21T04:50:41;1.08;;;1.08;;
33357;SDS011;19717;42.614;23.418;2023-08-21T04:53:07;1.58;;;1.48;;
33357;SDS011;19717;42.614;23.418;2023-08-21T04:55:33;2.05;;;1.50;;
33357;SDS011;19717;42.614;23.418;2023-08-21T04:57:59;1.67;;;1.38;;
33357;SDS011;19717;42.614;23.418;2023-08-21T05:00:25;1.88;;;1.15;;
33357;SDS011;19717;42.614;23.418;2023-08-21T05:02:51;1.30;;;1.20;;
33357;SDS011;19717;42.614;23.418;2023-08-21T05:05:17;1.17;;;1.17;;
33357;SDS011;19717;42.614;23.418;2023-08-21T05:07:43;4.35;;;1.27;;
33357;SDS011;19717;42.614;23.418;2023-08-21T05:10:09;2.47;;;1.42;;
33357;SDS011;19717;42.614;23.418;2023-08-21T05:12:35;3.30;;;1.40;;
33357;SDS011;19717;42.614;23.418;2023-08-21T05:15:01;5.38;;;1.65;;
33357;SDS011;19717;42.614;23.418;2023-08-21T05:17:27;1.35;;;1.25;;
33357;SDS011;19717;42.614;23.418;2023-08-21T05:19:54;3.28;;;1.27;;
33357;SDS011;19717;42.614;23.418;2023-08-21T05:22:20;1.48;;;1.38;;
33357;SDS011;19717;42.614;23.418;2023-08-21T05:24:46;1.63;;;1.38;;
33357;SDS011;19717;42.614;23.418;2023-08-21T05:27:12;1.55;;;1.38;;
33357;SDS011;19717;42.614;23.418;2023-08-21T05:29:38;4.82;;;1.70;;
33357;SDS011;19717;42.614;23.418;2023-08-21T05:32:04;2.75;;;1.42;;
33357;SDS011;19717;42.614;23.418;2023-08-21T05:34:31;2.75;;;1.85;;
33357;SDS011;19717;42.614;23.418;2023-08-21T05:36:57;1.88;;;1.40;;
33357;SDS011;19717;42.614;23.418;2023-08-21T05:39:23;3.00;;;1.30;;
33357;SDS011;19717;42.614;23.418;2023-08-21T05:41:49;3.47;;;1.65;;
33357;SDS011;19717;42.614;23.418;2023-08-21T05:44:15;1.98;;;1.40;;
33357;SDS011;19717;42.614;23.418;2023-08-21T05:46:41;3.35;;;1.60;;
33357;SDS011;19717;42.614;23.418;2023-08-21T05:49:07;3.97;;;1.80;;
33357;SDS011;19717;42.614;23.418;2023-08-21T05:51:33;3.63;;;1.48;;
33357;SDS011;19717;42.614;23.418;2023-08-21T05:53:59;1.98;;;1.42;;
33357;SDS011;19717;42.614;23.418;2023-08-21T05:56:25;3.60;;;1.50;;
33357;SDS011;19717;42.614;23.418;2023-08-21T05:58:51;4.75;;;1.30;;
33357;SDS011;19717;42.614;23.418;2023-08-21T06:01:17;1.73;;;1.38;;
33357;SDS011;19717;42.614;23.418;2023-08-21T06:03:43;1.73;;;1.30;;
33357;SDS011;19717;42.614;23.418;2023-08-21T06:06:10;1.80;;;1.42;;
33357;SDS011;19717;42.614;23.418;2023-08-21T06:08:36;1.17;;;1.10;;
33357;SDS011;19717;42.614;23.418;2023-08-21T06:11:02;1.40;;;1.30;;
33357;SDS011;19717;42.614;23.418;2023-08-21T06:13:29;2.92;;;1.50;;
33357;SDS011;19717;42.614;23.418;2023-08-21T06:15:55;3.13;;;1.20;;
33357;SDS011;19717;42.614;23.418;2023-08-21T06:18:21;4.82;;;1.42;;
33357;SDS011;19717;42.614;23.418;2023-08-21T06:20:48;2.22;;;1.33;;
33357;SDS011;19717;42.614;23.418;2023-08-21T06:23:14;2.20;;;1.30;;
33357;SDS011;19717;42.614;23.418;2023-08-21T06:25:41;1.33;;;1.20;;
33357;SDS011;19717;42.614;23.418;2023-08-21T06:28:09;1.30;;;1.00;;
33357;SDS011;19717;42.614;23.418;2023-08-21T06:30:35;1.13;;;1.00;;
33357;SDS011;19717;42.614;23.418;2023-08-21T06:33:01;1.48;;;1.05;;
33357;SDS011;19717;42.614;23.418;2023-08-21T06:35:27;6.43;;;1.63;;
33357;SDS011;19717;42.614;23.418;2023-08-21T06:37:53;1.20;;;0.90;;
33357;SDS011;19717;42.614;23.418;2023-08-21T06:40:22;0.80;;;0.80;;
33357;SDS011;19717;42.614;23.418;2023-08-21T06:42:48;2.40;;;0.90;;
33357;SDS011;19717;42.614;23.418;2023-08-21T06:45:15;0.95;;;0.90;;
33357;SDS011;19717;42.614;23.418;2023-08-21T06:47:42;3.33;;;0.90;;
33357;SDS011;19717;42.614;23.418;2023-08-21T06:50:09;2.22;;;1.20;;
33357;SDS011;19717;42.614;23.418;2023-08-21T06:52:35;0.82;;;0.82;;
33357;SDS011;19717;42.614;23.418;2023-08-21T06:55:01;1.77;;;1.00;;
33357;SDS011;19717;42.614;23.418;2023-08-21T06:57:27;1.05;;;0.93;;
33357;SDS011;19717;42.614;23.418;2023-08-21T06:59:53;0.80;;;0.80;;
33357;SDS011;19717;42.614;23.418;2023-08-21T07:02:19;1.20;;;0.90;;
33357;SDS011;19717;42.614;23.418;2023-08-21T07:04:45;0.88;;;0.88;;
33357;SDS011;19717;42.614;23.418;2023-08-21T07:07:11;0.70;;;0.70;;
33357;SDS011;19717;42.614;23.418;2023-08-21T07:09:37;1.65;;;0.80;;
33357;SDS011;19717;42.614;23.418;2023-08-21T07:12:03;0.80;;;0.80;;
33357;SDS011;19717;42.614;23.418;2023-08-21T07:14:30;1.85;;;0.90;;
33357;SDS011;19717;42.614;23.418;2023-08-21T07:16:56;2.00;;;0.88;;
33357;SDS011;19717;42.614;23.418;2023-08-21T07:19:22;1.15;;;1.05;;
33357;SDS011;19717;42.614;23.418;2023-08-21T07:21:48;2.25;;;1.30;;
33357;SDS011;19717;42.614;23.418;2023-08-21T07:24:14;0.90;;;0.90;;
33357;SDS011;19717;42.614;23.418;2023-08-21T07:26:40;1.00;;;1.00;;
33357;SDS011;19717;42.614;23.418;2023-08-21T07:29:06;3.70;;;0.90;;
33357;SDS011;19717;42.614;23.418;2023-08-21T07:31:32;0.88;;;0.88;;
33357;SDS011;19717;42.614;23.418;2023-08-21T07:33:58;1.00;;;0.90;;
33357;SDS011;19717;42.614;23.418;2023-08-21T07:36:24;0.80;;;0.80;;
33357;SDS011;19717;42.614;23.418;2023-08-21T07:38:51;1.02;;;0.98;;
33357;SDS011;19717;42.614;23.418;2023-08-21T07:41:17;0.70;;;0.70;;
33357;SDS011;19717;42.614;23.418;2023-08-21T07:43:43;0.80;;;0.80;;
33357;SDS011;19717;42.614;23.418;2023-08-21T07:46:10;0.90;;;0.90;;
33357;SDS011;19717;42.614;23.418;2023-08-21T07:48:43;1.20;;;1.00;;
33357;SDS011;19717;42.614;23.418;2023-08-21T07:51:10;0.80;;;0.80;;
33357;SDS011;19717;42.614;23.418;2023-08-21T07:53:36;1.02;;;0.98;;
33357;SDS011;19717;42.614;23.418;2023-08-21T07:56:02;1.05;;;0.88;;
33357;SDS011;19717;42.614;23.418;2023-08-21T07:58:29;1.27;;;0.93;;
33357;SDS011;19717;42.614;23.418;2023-08-21T08:00:55;1.00;;;0.88;;
33357;SDS011;19717;42.614;23.418;2023-08-21T08:03:21;1.00;;;0.90;;
33357;SDS011;19717;42.614;23.418;2023-08-21T08:05:48;5.68;;;0.95;;
33357;SDS011;19717;42.614;23.418;2023-08-21T08:08:14;0.80;;;0.80;;
33357;SDS011;19717;42.614;23.418;2023-08-21T08:10:40;1.60;;;1.00;;
33357;SDS011;19717;42.614;23.418;2023-08-21T08:13:06;1.27;;;1.17;;
33357;SDS011;19717;42.614;23.418;2023-08-21T08:15:33;1.60;;;1.20;;
33357;SDS011;19717;42.614;23.418;2023-08-21T08:18:00;2.35;;;1.15;;
33357;SDS011;19717;42.614;23.418;2023-08-21T08:20:26;3.45;;;1.00;;
33357;SDS011;19717;42.614;23.418;2023-08-21T08:22:52;1.65;;;1.50;;
33357;SDS011;19717;42.614;23.418;2023-08-21T08:25:18;1.25;;;0.88;;
33357;SDS011;19717;42.614;23.418;2023-08-21T08:27:44;1.95;;;0.90;;
33357;SDS011;19717;42.614;23.418;2023-08-21T08:30:10;0.90;;;0.90;;
33357;SDS011;19717;42.614;23.418;2023-08-21T08:32:36;1.73;;;0.80;;
33357;SDS011;19717;42.614;23.418;2023-08-21T08:35:03;1.67;;;1.10;;
33357;SDS011;19717;42.614;23.418;2023-08-21T08:37:29;1.40;;;0.93;;
33357;SDS011;19717;42.614;23.418;2023-08-21T08:39:55;0.80;;;0.80;;
33357;SDS011;19717;42.614;23.418;2023-08-21T08:42:21;1.02;;;0.80;;
33357;SDS011;19717;42.614;23.418;2023-08-21T08:44:47;0.80;;;0.80;;
33357;SDS011;19717;42.614;23.418;2023-08-21T08:47:15;1.23;;;0.73;;
33357;SDS011;19717;42.614;23.418;2023-08-21T08:49:41;2.13;;;0.90;;
33357;SDS011;19717;42.614;23.418;2023-08-21T08:52:07;2.00;;;0.80;;
33357;SDS011;19717;42.614;23.418;2023-08-21T08:54:33;0.73;;;0.73;;
33357;SDS011;19717;42.614;23.418;2023-08-21T08:57:00;1.13;;;0.70;;
33357;SDS011;19717;42.614;23.418;2023-08-21T08:59:29;0.70;;;0.70;;
33357;SDS011;19717;42.614;23.418;2023-08-21T09:01:56;0.70;;;0.70;;
33357;SDS011;19717;42.614;23.418;2023-08-21T09:04:22;0.82;;;0.70;;
33357;SDS011;19717;42.614;23.418;2023-08-21T09:06:48;1.15;;;0.70;;
33357;SDS011;19717;42.614;23.418;2023-08-21T09:09:14;0.60;;;0.60;;
33357;SDS011;19717;42.614;23.418;2023-08-21T09:11:43;0.70;;;0.70;;
33357;SDS011;19717;42.614;23.418;2023-08-21T09:14:10;0.70;;;0.70;;
33357;SDS011;19717;42.614;23.418;2023-08-21T09:16:36;1.45;;;0.63;;
33357;SDS011;19717;42.614;23.418;2023-08-21T09:19:02;0.70;;;0.70;;
33357;SDS011;19717;42.614;23.418;2023-08-21T09:21:29;0.60;;;0.60;;
33357;SDS011;19717;42.614;23.418;2023-08-21T09:23:59;0.60;;;0.60;;
33357;SDS011;19717;42.614;23.418;2023-08-21T09:26:25;0.60;;;0.60;;
33357;SDS011;19717;42.614;23.418;2023-08-21T09:28:52;0.65;;;0.60;;
33357;SDS011;19717;42.614;23.418;2023-08-21T09:31:21;0.70;;;0.70;;
33357;SDS011;19717;42.614;23.418;2023-08-21T09:33:55;0.60;;;0.60;;
33357;SDS011;19717;42.614;23.418;2023-08-21T09:36:22;2.45;;;0.70;;
33357;SDS011;19717;42.614;23.418;2023-08-21T09:38:50;0.55;;;0.55;;
33357;SDS011;19717;42.614;23.418;2023-08-21T09:41:18;0.75;;;0.52;;
33357;SDS011;19717;42.614;23.418;2023-08-21T09:43:44;3.08;;;0.82;;
33357;SDS011;19717;42.614;23.418;2023-08-21T09:46:13;0.63;;;0.60;;
33357;SDS011;19717;42.614;23.418;2023-08-21T09:48:41;0.73;;;0.63;;
33357;SDS011;19717;42.614;23.418;2023-08-21T09:51:07;1.58;;;0.70;;
33357;SDS011;19717;42.614;23.418;2023-08-21T09:53:33;0.60;;;0.60;;
33357;SDS011;19717;42.614;23.418;2023-08-21T09:56:00;0.65;;;0.63;;
33357;SDS011;19717;42.614;23.418;2023-08-21T09:58:29;1.33;;;0.60;;
33357;SDS011;19717;42.614;23.418;2023-08-21T10:00:56;1.42;;;0.70;;
33357;SDS011;19717;42.614;23.418;2023-08-21T10:03:22;0.60;;;0.60;;
33357;SDS011;19717;42.614;23.418;2023-08-21T10:05:53;0.75;;;0.60;;
33357;SDS011;19717;42.614;23.418;2023-08-21T10:08:21;1.52;;;0.82;;
33357;SDS011;19717;42.614;23.418;2023-08-21T10:10:49;0.68;;;0.68;;
33357;SDS011;19717;42.614;23.418;2023-08-21T10:13:15;0.82;;;0.60;;
33357;SDS011;19717;42.614;23.418;2023-08-21T10:15:41;0.50;;;0.50;;
33357;SDS011;19717;42.614;23.418;2023-08-21T10:18:25;1.75;;;0.60;;
33357;SDS011;19717;42.614;23.418;2023-08-21T10:20:54;2.10;;;0.60;;
33357;SDS011;19717;42.614;23.418;2023-08-21T10:23:27;0.50;;;0.50;;
33357;SDS011;19717;42.614;23.418;2023-08-21T10:25:58;0.60;;;0.60;;
33357;SDS011;19717;42.614;23.418;2023-08-21T10:28:24;0.60;;;0.60;;
33357;SDS011;19717;42.614;23.418;2023-08-21T10:30:50;0.85;;;0.60;;
33357;SDS011;19717;42.614;23.418;2023-08-21T10:33:16;0.60;;;0.60;;
33357;SDS011;19717;42.614;23.418;2023-08-21T10:35:44;0.50;;;0.50;;
33357;SDS011;19717;42.614;23.418;2023-08-21T10:38:14;0.50;;;0.50;;
33357;SDS011;19717;42.614;23.418;2023-08-21T10:43:45;0.57;;;0.50;;
33357;SDS011;19717;42.614;23.418;2023-08-21T10:46:11;1.17;;;0.70;;
33357;SDS011;19717;42.614;23.418;2023-08-21T10:48:38;0.63;;;0.60;;
33357;SDS011;19717;42.614;23.418;2023-08-21T10:51:05;1.02;;;0.80;;
33357;SDS011;19717;42.614;23.418;2023-08-21T10:53:32;0.80;;;0.60;;
33357;SDS011;19717;42.614;23.418;2023-08-21T10:56:02;0.82;;;0.60;;
33357;SDS011;19717;42.614;23.418;2023-08-21T10:58:31;0.60;;;0.60;;
33357;SDS011;19717;42.614;23.418;2023-08-21T11:00:59;0.50;;;0.50;;
33357;SDS011;19717;42.614;23.418;2023-08-21T11:03:25;0.50;;;0.50;;
33357;SDS011;19717;42.614;23.418;2023-08-21T11:06:04;0.50;;;0.50;;
33357;SDS011;19717;42.614;23.418;2023-08-21T11:08:31;0.70;;;0.60;;
33357;SDS011;19717;42.614;23.418;2023-08-21T11:10:58;1.75;;;0.52;;
33357;SDS011;19717;42.614;23.418;2023-08-21T11:13:24;0.80;;;0.50;;
33357;SDS011;19717;42.614;23.418;2023-08-21T11:16:00;1.33;;;0.60;;
33357;SDS011;19717;42.614;23.418;2023-08-21T11:18:36;1.05;;;0.60;;
33357;SDS011;19717;42.614;23.418;2023-08-21T11:23:32;0.60;;;0.60;;
33357;SDS011;19717;42.614;23.418;2023-08-21T11:25:58;0.85;;;0.60;;
33357;SDS011;19717;42.614;23.418;2023-08-21T11:28:24;1.20;;;0.57;;
33357;SDS011;19717;42.614;23.418;2023-08-21T11:30:50;0.50;;;0.50;;
33357;SDS011;19717;42.614;23.418;2023-08-21T11:33:17;0.60;;;0.60;;
33357;SDS011;19717;42.614;23.418;2023-08-21T11:35:43;1.50;;;0.75;;
33357;SDS011;19717;42.614;23.418;2023-08-21T11:38:14;0.50;;;0.50;;
33357;SDS011;19717;42.614;23.418;2023-08-21T11:43:06;0.63;;;0.60;;
33357;SDS011;19717;42.614;23.418;2023-08-21T11:45:34;1.83;;;0.60;;
33357;SDS011;19717;42.614;23.418;2023-08-21T11:48:00;0.52;;;0.52;;
33357;SDS011;19717;42.614;23.418;2023-08-21T11:50:26;0.68;;;0.52;;
33357;SDS011;19717;42.614;23.418;2023-08-21T11:52:52;0.50;;;0.50;;
33357;SDS011;19717;42.614;23.418;2023-08-21T11:55:18;0.75;;;0.50;;
33357;SDS011;19717;42.614;23.418;2023-08-21T11:57:48;2.38;;;0.70;;
33357;SDS011;19717;42.614;23.418;2023-08-21T12:00:14;0.90;;;0.65;;
33357;SDS011;19717;42.614;23.418;2023-08-21T12:02:44;1.55;;;0.57;;
33357;SDS011;19717;42.614;23.418;2023-08-21T12:05:14;1.02;;;0.65;;
33357;SDS011;19717;42.614;23.418;2023-08-21T12:07:40;1.20;;;0.70;;
33357;SDS011;19717;42.614;23.418;2023-08-21T12:10:06;0.50;;;0.50;;
33357;SDS011;19717;42.614;23.418;2023-08-21T12:12:32;0.57;;;0.47;;
33357;SDS011;19717;42.614;23.418;2023-08-21T12:14:59;0.50;;;0.50;;
33357;SDS011;19717;42.614;23.418;2023-08-21T12:17:25;3.03;;;0.63;;
33357;SDS011;19717;42.614;23.418;2023-08-21T12:19:51;1.17;;;0.50;;
33357;SDS011;19717;42.614;23.418;2023-08-21T12:22:17;0.60;;;0.60;;
33357;SDS011;19717;42.614;23.418;2023-08-21T12:24:43;0.50;;;0.50;;
33357;SDS011;19717;42.614;23.418;2023-08-21T12:27:09;0.60;;;0.60;;
33357;SDS011;19717;42.614;23.418;2023-08-21T12:29:35;0.50;;;0.50;;
33357;SDS011;19717;42.614;23.418;2023-08-21T12:32:01;1.10;;;0.63;;
33357;SDS011;19717;42.614;23.418;2023-08-21T12:34:28;0.50;;;0.50;;
33357;SDS011;19717;42.614;23.418;2023-08-21T12:36:54;0.60;;;0.60;;
33357;SDS011;19717;42.614;23.418;2023-08-21T12:39:20;3.22;;;0.80;;
33357;SDS011;19717;42.614;23.418;2023-08-21T12:41:47;2.72;;;0.68;;
33357;SDS011;19717;42.614;23.418;2023-08-21T12:44:13;0.80;;;0.60;;
33357;SDS011;19717;42.614;23.418;2023-08-21T12:46:39;0.60;;;0.60;;
33357;SDS011;19717;42.614;23.418;2023-08-21T12:49:05;0.50;;;0.50;;
33357;SDS011;19717;42.614;23.418;2023-08-21T12:51:32;0.50;;;0.50;;
33357;SDS011;19717;42.614;23.418;2023-08-21T12:53:58;1.20;;;0.50;;
33357;SDS011;19717;42.614;23.418;2023-08-21T12:56:24;0.85;;;0.60;;
33357;SDS011;19717;42.614;23.418;2023-08-21T12:58:50;0.50;;;0.50;;
33357;SDS011;19717;42.614;23.418;2023-08-21T13:01:17;0.50;;;0.50;;
33357;SDS011;19717;42.614;23.418;2023-08-21T13:03:46;0.50;;;0.50;;
33357;SDS011;19717;42.614;23.418;2023-08-21T13:06:12;0.85;;;0.50;;
33357;SDS011;19717;42.614;23.418;2023-08-21T13:08:38;0.70;;;0.50;;
33357;SDS011;19717;42.614;23.418;2023-08-21T13:11:05;0.50;;;0.50;;
33357;SDS011;19717;42.614;23.418;2023-08-21T13:13:31;0.55;;;0.55;;
33357;SDS011;19717;42.614;23.418;2023-08-21T13:15:57;0.77;;;0.65;;
33357;SDS011;19717;42.614;23.418;2023-08-21T13:18:25;1.15;;;0.50;;
33357;SDS011;19717;42.614;23.418;2023-08-21T13:20:51;0.68;;;0.60;;
33357;SDS011;19717;42.614;23.418;2023-08-21T13:23:17;0.65;;;0.50;;
33357;SDS011;19717;42.614;23.418;2023-08-21T13:25:43;0.68;;;0.60;;
33357;SDS011;19717;42.614;23.418;2023-08-21T13:28:09;0.50;;;0.50;;
33357;SDS011;19717;42.614;23.418;2023-08-21T13:30:36;0.73;;;0.45;;
33357;SDS011;19717;42.614;23.418;2023-08-21T13:33:02;0.50;;;0.50;;
33357;SDS011;19717;42.614;23.418;2023-08-21T13:35:29;0.50;;;0.50;;
33357;SDS011;19717;42.614;23.418;2023-08-21T13:37:55;0.45;;;0.45;;
33357;SDS011;19717;42.614;23.418;2023-08-21T13:40:21;0.50;;;0.50;;
33357;SDS011;19717;42.614;23.418;2023-08-21T13:42:47;0.50;;;0.50;;
33357;SDS011;19717;42.614;23.418;2023-08-21T13:45:14;0.50;;;0.50;;
33357;SDS011;19717;42.614;23.418;2023-08-21T13:47:44;1.20;;;0.70;;
33357;SDS011;19717;42.614;23.418;2023-08-21T13:50:14;1.35;;;0.55;;
33357;SDS011;19717;42.614;23.418;2023-08-21T13:52:41;0.75;;;0.52;;
33357;SDS011;19717;42.614;23.418;2023-08-21T13:55:07;0.63;;;0.52;;
33357;SDS011;19717;42.614;23.418;2023-08-21T13:57:34;0.80;;;0.50;;
33357;SDS011;19717;42.614;23.418;2023-08-21T14:00:00;0.50;;;0.50;;
33357;SDS011;19717;42.614;23.418;2023-08-21T14:02:27;0.50;;;0.50;;
33357;SDS011;19717;42.614;23.418;2023-08-21T14:04:53;1.20;;;0.65;;
33357;SDS011;19717;42.614;23.418;2023-08-21T14:07:19;0.50;;;0.50;;
33357;SDS011;19717;42.614;23.418;2023-08-21T14:10:01;1.23;;;0.60;;
33357;SDS011;19717;42.614;23.418;2023-08-21T14:12:28;0.60;;;0.55;;
33357;SDS011;19717;42.614;23.418;2023-08-21T14:14:55;1.30;;;0.68;;
33357;SDS011;19717;42.614;23.418;2023-08-21T14:17:21;1.95;;;0.60;;
33357;SDS011;19717;42.614;23.418;2023-08-21T14:19:56;0.65;;;0.65;;
33357;SDS011;19717;42.614;23.418;2023-08-21T14:22:23;1.15;;;0.75;;
33357;SDS011;19717;42.614;23.418;2023-08-21T14:24:49;1.65;;;0.57;;
33357;SDS011;19717;42.614;23.418;2023-08-21T14:27:15;1.38;;;0.63;;
33357;SDS011;19717;42.614;23.418;2023-08-21T14:29:42;0.68;;;0.50;;
33357;SDS011;19717;42.614;23.418;2023-08-21T14:32:09;0.60;;;0.60;;
33357;SDS011;19717;42.614;23.418;2023-08-21T14:34:35;0.60;;;0.50;;
33357;SDS011;19717;42.614;23.418;2023-08-21T14:37:01;0.63;;;0.50;;
33357;SDS011;19717;42.614;23.418;2023-08-21T14:39:29;0.75;;;0.60;;
33357;SDS011;19717;42.614;23.418;2023-08-21T14:41:55;0.95;;;0.93;;